sensor_id;sensor_type;location;lat;lon;timestamp;temperature;humidity
33414;DHT22;60055;41.884;12.534;2022-08-07T00:01:04;30.60;96.10
33414;DHT22;60055;41.884;12.534;2022-08-07T00:03:30;30.50;96.20
33414;DHT22;60055;41.884;12.534;2022-08-07T00:05:56;30.40;96.30
33414;DHT22;60055;41.884;12.534;2022-08-07T00:08:22;30.50;96.20
33414;DHT22;60055;41.884;12.534;2022-08-07T00:10:48;30.50;96.10
33414;DHT22;60055;41.884;12.534;2022-08-07T00:13:15;30.50;96.10
33414;DHT22;60055;41.884;12.534;2022-08-07T00:15:41;30.40;95.90
33414;DHT22;60055;41.884;12.534;2022-08-07T00:18:07;30.40;96.00
33414;DHT22;60055;41.884;12.534;2022-08-07T00:20:37;30.40;95.90
33414;DHT22;60055;41.884;12.534;2022-08-07T00:23:04;30.40;95.90
33414;DHT22;60055;41.884;12.534;2022-08-07T00:25:33;30.50;95.80
33414;DHT22;60055;41.884;12.534;2022-08-07T00:27:59;30.40;95.80
33414;DHT22;60055;41.884;12.534;2022-08-07T00:30:25;30.40;95.80
33414;DHT22;60055;41.884;12.534;2022-08-07T00:32:51;30.20;96.00
33414;DHT22;60055;41.884;12.534;2022-08-07T00:35:17;30.20;96.10
33414;DHT22;60055;41.884;12.534;2022-08-07T00:37:44;30.30;96.00
33414;DHT22;60055;41.884;12.534;2022-08-07T00:40:10;30.30;96.00
33414;DHT22;60055;41.884;12.534;2022-08-07T00:42:37;30.30;96.00
33414;DHT22;60055;41.884;12.534;2022-08-07T00:45:04;30.20;96.10
33414;DHT22;60055;41.884;12.534;2022-08-07T00:47:30;30.20;96.00
33414;DHT22;60055;41.884;12.534;2022-08-07T00:49:55;30.20;95.90
33414;DHT22;60055;41.884;12.534;2022-08-07T00:52:21;30.20;95.80
33414;DHT22;60055;41.884;12.534;2022-08-07T00:54:47;30.20;95.80
33414;DHT22;60055;41.884;12.534;2022-08-07T00:57:13;30.20;95.70
33414;DHT22;60055;41.884;12.534;2022-08-07T00:59:40;30.20;95.60
33414;DHT22;60055;41.884;12.534;2022-08-07T01:02:07;30.30;95.50
33414;DHT22;60055;41.884;12.534;2022-08-07T01:04:33;30.20;95.60
33414;DHT22;60055;41.884;12.534;2022-08-07T01:06:59;30.20;95.60
33414;DHT22;60055;41.884;12.534;2022-08-07T01:09:26;30.10;95.60
33414;DHT22;60055;41.884;12.534;2022-08-07T01:11:52;30.10;95.50
33414;DHT22;60055;41.884;12.534;2022-08-07T01:14:19;30.20;95.50
33414;DHT22;60055;41.884;12.534;2022-08-07T01:16:45;30.10;95.60
33414;DHT22;60055;41.884;12.534;2022-08-07T01:19:11;30.10;95.60
33414;DHT22;60055;41.884;12.534;2022-08-07T01:21:37;30.10;95.60
33414;DHT22;60055;41.884;12.534;2022-08-07T01:24:03;30.10;95.50
33414;DHT22;60055;41.884;12.534;2022-08-07T01:26:29;30.00;95.60
33414;DHT22;60055;41.884;12.534;2022-08-07T01:28:55;30.00;95.60
33414;DHT22;60055;41.884;12.534;2022-08-07T01:31:21;30.00;95.60
33414;DHT22;60055;41.884;12.534;2022-08-07T01:33:52;30.00;95.70
33414;DHT22;60055;41.884;12.534;2022-08-07T01:36:18;29.80;95.80
33414;DHT22;60055;41.884;12.534;2022-08-07T01:38:44;30.00;95.70
33414;DHT22;60055;41.884;12.534;2022-08-07T01:41:10;30.00;95.70
33414;DHT22;60055;41.884;12.534;2022-08-07T01:43:36;30.00;95.70
33414;DHT22;60055;41.884;12.534;2022-08-07T01:46:03;30.00;95.80
33414;DHT22;60055;41.884;12.534;2022-08-07T01:48:29;29.90;95.90
33414;DHT22;60055;41.884;12.534;2022-08-07T01:51:03;29.80;96.10
33414;DHT22;60055;41.884;12.534;2022-08-07T01:53:32;29.80;96.20
33414;DHT22;60055;41.884;12.534;2022-08-07T01:56:02;29.80;96.10
33414;DHT22;60055;41.884;12.534;2022-08-07T01:58:33;29.80;96.20
33414;DHT22;60055;41.884;12.534;2022-08-07T02:01:05;29.80;96.20
33414;DHT22;60055;41.884;12.534;2022-08-07T02:03:34;29.80;96.20
33414;DHT22;60055;41.884;12.534;2022-08-07T02:06:06;29.80;96.30
33414;DHT22;60055;41.884;12.534;2022-08-07T02:08:35;29.80;96.30
33414;DHT22;60055;41.884;12.534;2022-08-07T02:11:06;29.70;96.30
33414;DHT22;60055;41.884;12.534;2022-08-07T02:13:36;29.70;96.40
33414;DHT22;60055;41.884;12.534;2022-08-07T02:16:06;29.60;96.40
33414;DHT22;60055;41.884;12.534;2022-08-07T02:18:35;29.60;96.50
33414;DHT22;60055;41.884;12.534;2022-08-07T02:21:03;29.60;96.60
33414;DHT22;60055;41.884;12.534;2022-08-07T02:23:32;29.40;96.60
33414;DHT22;60055;41.884;12.534;2022-08-07T02:26:00;29.40;96.70
33414;DHT22;60055;41.884;12.534;2022-08-07T02:28:28;29.40;96.80
33414;DHT22;60055;41.884;12.534;2022-08-07T02:30:54;29.40;96.80
33414;DHT22;60055;41.884;12.534;2022-08-07T02:33:22;29.50;96.60
33414;DHT22;60055;41.884;12.534;2022-08-07T02:35:49;29.50;96.50
33414;DHT22;60055;41.884;12.534;2022-08-07T02:38:17;29.50;96.50
33414;DHT22;60055;41.884;12.534;2022-08-07T02:40:46;29.50;96.50
33414;DHT22;60055;41.884;12.534;2022-08-07T02:43:13;29.60;96.50
33414;DHT22;60055;41.884;12.534;2022-08-07T02:45:41;29.50;96.60
33414;DHT22;60055;41.884;12.534;2022-08-07T02:48:09;29.40;96.60
33414;DHT22;60055;41.884;12.534;2022-08-07T02:50:38;29.60;96.40
33414;DHT22;60055;41.884;12.534;2022-08-07T02:53:10;29.60;96.30
33414;DHT22;60055;41.884;12.534;2022-08-07T02:55:41;29.50;96.30
33414;DHT22;60055;41.884;12.534;2022-08-07T02:58:13;29.50;96.40
33414;DHT22;60055;41.884;12.534;2022-08-07T03:00:40;29.60;96.40
33414;DHT22;60055;41.884;12.534;2022-08-07T03:03:08;29.60;96.30
33414;DHT22;60055;41.884;12.534;2022-08-07T03:05:34;29.60;96.20
33414;DHT22;60055;41.884;12.534;2022-08-07T03:08:02;29.60;96.20
33414;DHT22;60055;41.884;12.534;2022-08-07T03:10:28;29.70;96.20
33414;DHT22;60055;41.884;12.534;2022-08-07T03:12:54;29.60;96.30
33414;DHT22;60055;41.884;12.534;2022-08-07T03:15:21;29.60;96.40
33414;DHT22;60055;41.884;12.534;2022-08-07T03:17:47;29.50;96.40
33414;DHT22;60055;41.884;12.534;2022-08-07T03:20:14;29.50;96.40
33414;DHT22;60055;41.884;12.534;2022-08-07T03:22:41;29.50;96.40
33414;DHT22;60055;41.884;12.534;2022-08-07T03:25:08;29.60;96.40
33414;DHT22;60055;41.884;12.534;2022-08-07T03:27:34;29.50;96.50
33414;DHT22;60055;41.884;12.534;2022-08-07T03:30:00;29.40;96.50
33414;DHT22;60055;41.884;12.534;2022-08-07T03:32:32;29.40;96.50
33414;DHT22;60055;41.884;12.534;2022-08-07T03:34:59;29.60;96.40
33414;DHT22;60055;41.884;12.534;2022-08-07T03:37:27;29.40;96.50
33414;DHT22;60055;41.884;12.534;2022-08-07T03:39:54;29.30;96.60
33414;DHT22;60055;41.884;12.534;2022-08-07T03:42:21;29.40;96.30
33414;DHT22;60055;41.884;12.534;2022-08-07T03:44:47;29.20;95.70
33414;DHT22;60055;41.884;12.534;2022-08-07T03:47:14;29.10;95.70
33414;DHT22;60055;41.884;12.534;2022-08-07T03:49:41;29.30;95.70
33414;DHT22;60055;41.884;12.534;2022-08-07T03:52:08;29.30;95.40
33414;DHT22;60055;41.884;12.534;2022-08-07T03:54:34;29.30;95.00
33414;DHT22;60055;41.884;12.534;2022-08-07T03:57:00;29.20;94.80
33414;DHT22;60055;41.884;12.534;2022-08-07T03:59:27;29.20;94.10
33414;DHT22;60055;41.884;12.534;2022-08-07T04:01:57;29.00;94.30
33414;DHT22;60055;41.884;12.534;2022-08-07T04:04:23;29.00;94.10
33414;DHT22;60055;41.884;12.534;2022-08-07T04:06:50;29.00;93.60
33414;DHT22;60055;41.884;12.534;2022-08-07T04:09:20;29.00;93.10
33414;DHT22;60055;41.884;12.534;2022-08-07T04:11:48;28.90;93.10
33414;DHT22;60055;41.884;12.534;2022-08-07T04:14:15;28.80;93.00
33414;DHT22;60055;41.884;12.534;2022-08-07T04:16:41;28.90;92.80
33414;DHT22;60055;41.884;12.534;2022-08-07T04:19:06;29.00;92.50
33414;DHT22;60055;41.884;12.534;2022-08-07T04:21:32;29.00;92.50
33414;DHT22;60055;41.884;12.534;2022-08-07T04:23:59;29.20;92.20
33414;DHT22;60055;41.884;12.534;2022-08-07T04:26:25;29.10;91.80
33414;DHT22;60055;41.884;12.534;2022-08-07T04:28:51;29.10;91.80
33414;DHT22;60055;41.884;12.534;2022-08-07T04:31:17;28.90;91.70
33414;DHT22;60055;41.884;12.534;2022-08-07T04:33:44;28.90;91.60
33414;DHT22;60055;41.884;12.534;2022-08-07T04:36:10;28.90;91.60
33414;DHT22;60055;41.884;12.534;2022-08-07T04:38:38;29.00;91.50
33414;DHT22;60055;41.884;12.534;2022-08-07T04:41:05;28.90;91.60
33414;DHT22;60055;41.884;12.534;2022-08-07T04:43:36;29.10;91.40
33414;DHT22;60055;41.884;12.534;2022-08-07T04:54:55;29.00;91.40
33414;DHT22;60055;41.884;12.534;2022-08-07T04:57:29;29.00;91.40
33414;DHT22;60055;41.884;12.534;2022-08-07T05:00:09;29.00;91.60
33414;DHT22;60055;41.884;12.534;2022-08-07T05:05:24;29.20;91.40
33414;DHT22;60055;41.884;12.534;2022-08-07T05:08:21;29.30;91.20
33414;DHT22;60055;41.884;12.534;2022-08-07T05:10:55;29.50;90.90
33414;DHT22;60055;41.884;12.534;2022-08-07T05:13:36;29.70;90.70
33414;DHT22;60055;41.884;12.534;2022-08-07T05:16:06;30.00;89.90
33414;DHT22;60055;41.884;12.534;2022-08-07T05:18:39;30.00;90.00
33414;DHT22;60055;41.884;12.534;2022-08-07T05:21:08;30.00;90.20
33414;DHT22;60055;41.884;12.534;2022-08-07T05:26:10;30.00;90.00
33414;DHT22;60055;41.884;12.534;2022-08-07T05:28:37;30.20;89.20
33414;DHT22;60055;41.884;12.534;2022-08-07T05:31:04;30.40;88.90
33414;DHT22;60055;41.884;12.534;2022-08-07T05:33:33;30.40;88.60
33414;DHT22;60055;41.884;12.534;2022-08-07T05:36:00;30.60;88.50
33414;DHT22;60055;41.884;12.534;2022-08-07T05:38:27;30.30;87.70
33414;DHT22;60055;41.884;12.534;2022-08-07T05:40:53;30.20;88.60
33414;DHT22;60055;41.884;12.534;2022-08-07T05:43:20;30.20;88.20
33414;DHT22;60055;41.884;12.534;2022-08-07T05:45:46;30.30;88.00
33414;DHT22;60055;41.884;12.534;2022-08-07T05:48:13;30.50;87.10
33414;DHT22;60055;41.884;12.534;2022-08-07T05:50:40;30.50;86.50
33414;DHT22;60055;41.884;12.534;2022-08-07T05:53:06;31.10;85.40
33414;DHT22;60055;41.884;12.534;2022-08-07T05:55:33;31.00;84.90
33414;DHT22;60055;41.884;12.534;2022-08-07T05:58:00;31.10;84.10
33414;DHT22;60055;41.884;12.534;2022-08-07T06:00:28;31.20;83.10
33414;DHT22;60055;41.884;12.534;2022-08-07T06:02:55;31.40;82.90
33414;DHT22;60055;41.884;12.534;2022-08-07T06:05:23;31.60;82.40
33414;DHT22;60055;41.884;12.534;2022-08-07T06:07:53;31.40;82.10
33414;DHT22;60055;41.884;12.534;2022-08-07T06:10:20;31.90;81.30
33414;DHT22;60055;41.884;12.534;2022-08-07T06:12:46;31.90;80.70
33414;DHT22;60055;41.884;12.534;2022-08-07T06:15:14;31.60;81.40
33414;DHT22;60055;41.884;12.534;2022-08-07T06:17:42;31.80;80.90
33414;DHT22;60055;41.884;12.534;2022-08-07T06:20:08;32.10;80.00
33414;DHT22;60055;41.884;12.534;2022-08-07T06:22:35;32.00;80.00
33414;DHT22;60055;41.884;12.534;2022-08-07T06:25:02;32.20;79.90
33414;DHT22;60055;41.884;12.534;2022-08-07T06:27:28;32.40;79.30
33414;DHT22;60055;41.884;12.534;2022-08-07T06:29:54;32.00;80.00
33414;DHT22;60055;41.884;12.534;2022-08-07T06:32:19;32.40;79.40
33414;DHT22;60055;41.884;12.534;2022-08-07T06:34:45;32.40;79.00
33414;DHT22;60055;41.884;12.534;2022-08-07T06:37:11;32.60;78.70
33414;DHT22;60055;41.884;12.534;2022-08-07T06:39:37;32.50;78.50
33414;DHT22;60055;41.884;12.534;2022-08-07T06:42:13;32.60;78.30
33414;DHT22;60055;41.884;12.534;2022-08-07T06:44:41;32.50;77.80
33414;DHT22;60055;41.884;12.534;2022-08-07T06:47:08;32.80;77.50
33414;DHT22;60055;41.884;12.534;2022-08-07T06:49:34;32.90;76.80
33414;DHT22;60055;41.884;12.534;2022-08-07T06:52:01;32.70;76.70
33414;DHT22;60055;41.884;12.534;2022-08-07T06:54:27;33.00;76.40
33414;DHT22;60055;41.884;12.534;2022-08-07T06:56:54;33.00;75.70
33414;DHT22;60055;41.884;12.534;2022-08-07T06:59:26;33.00;75.30
33414;DHT22;60055;41.884;12.534;2022-08-07T07:01:54;32.50;76.60
33414;DHT22;60055;41.884;12.534;2022-08-07T07:04:22;32.40;77.10
33414;DHT22;60055;41.884;12.534;2022-08-07T07:06:48;32.40;76.90
33414;DHT22;60055;41.884;12.534;2022-08-07T07:17:55;32.90;75.50
33414;DHT22;60055;41.884;12.534;2022-08-07T07:20:26;32.60;75.90
33414;DHT22;60055;41.884;12.534;2022-08-07T07:22:55;32.80;76.00
33414;DHT22;60055;41.884;12.534;2022-08-07T07:25:21;33.30;75.70
33414;DHT22;60055;41.884;12.534;2022-08-07T07:28:11;33.60;75.20
33414;DHT22;60055;41.884;12.534;2022-08-07T07:30:41;33.50;75.60
33414;DHT22;60055;41.884;12.534;2022-08-07T07:33:10;33.90;74.30
33414;DHT22;60055;41.884;12.534;2022-08-07T07:35:38;33.90;73.60
33414;DHT22;60055;41.884;12.534;2022-08-07T07:38:05;33.30;74.30
33414;DHT22;60055;41.884;12.534;2022-08-07T07:40:33;33.30;74.30
33414;DHT22;60055;41.884;12.534;2022-08-07T07:43:00;33.90;73.10
33414;DHT22;60055;41.884;12.534;2022-08-07T07:45:29;34.00;72.00
33414;DHT22;60055;41.884;12.534;2022-08-07T07:47:57;33.90;72.30
33414;DHT22;60055;41.884;12.534;2022-08-07T07:50:24;34.60;71.40
33414;DHT22;60055;41.884;12.534;2022-08-07T07:52:51;34.50;70.60
33414;DHT22;60055;41.884;12.534;2022-08-07T07:55:18;35.00;69.70
33414;DHT22;60055;41.884;12.534;2022-08-07T07:57:46;35.30;69.10
33414;DHT22;60055;41.884;12.534;2022-08-07T08:00:13;35.70;67.90
33414;DHT22;60055;41.884;12.534;2022-08-07T08:02:39;35.70;67.40
33414;DHT22;60055;41.884;12.534;2022-08-07T08:05:09;36.20;67.20
33414;DHT22;60055;41.884;12.534;2022-08-07T08:07:36;37.00;65.60
33414;DHT22;60055;41.884;12.534;2022-08-07T08:10:04;37.00;64.30
33414;DHT22;60055;41.884;12.534;2022-08-07T08:12:32;36.10;65.90
33414;DHT22;60055;41.884;12.534;2022-08-07T08:14:58;36.60;65.40
33414;DHT22;60055;41.884;12.534;2022-08-07T08:17:26;36.40;65.20
33414;DHT22;60055;41.884;12.534;2022-08-07T08:19:55;36.20;65.00
33414;DHT22;60055;41.884;12.534;2022-08-07T08:22:22;36.80;64.70
33414;DHT22;60055;41.884;12.534;2022-08-07T08:25:07;37.70;63.30
33414;DHT22;60055;41.884;12.534;2022-08-07T08:27:53;37.40;63.40
33414;DHT22;60055;41.884;12.534;2022-08-07T08:30:21;37.30;63.00
33414;DHT22;60055;41.884;12.534;2022-08-07T08:32:58;38.00;62.30
33414;DHT22;60055;41.884;12.534;2022-08-07T08:35:27;38.00;61.50
33414;DHT22;60055;41.884;12.534;2022-08-07T08:38:01;38.10;60.90
33414;DHT22;60055;41.884;12.534;2022-08-07T08:40:37;38.70;60.10
33414;DHT22;60055;41.884;12.534;2022-08-07T08:43:18;38.90;59.80
33414;DHT22;60055;41.884;12.534;2022-08-07T08:45:52;38.50;59.60
33414;DHT22;60055;41.884;12.534;2022-08-07T08:48:36;38.00;59.30
33414;DHT22;60055;41.884;12.534;2022-08-07T08:54:03;38.10;59.60
33414;DHT22;60055;41.884;12.534;2022-08-07T08:56:41;38.60;58.60
33414;DHT22;60055;41.884;12.534;2022-08-07T08:59:16;38.50;58.30
33414;DHT22;60055;41.884;12.534;2022-08-07T09:04:56;38.20;59.00
33414;DHT22;60055;41.884;12.534;2022-08-07T09:07:31;39.30;57.90
33414;DHT22;60055;41.884;12.534;2022-08-07T09:10:13;39.10;58.40
33414;DHT22;60055;41.884;12.534;2022-08-07T09:21:43;37.80;59.50
33414;DHT22;60055;41.884;12.534;2022-08-07T09:24:13;38.00;59.80
33414;DHT22;60055;41.884;12.534;2022-08-07T09:35:27;38.50;60.00
33414;DHT22;60055;41.884;12.534;2022-08-07T09:38:08;37.30;61.00
33414;DHT22;60055;41.884;12.534;2022-08-07T09:41:05;36.60;62.60
33414;DHT22;60055;41.884;12.534;2022-08-07T09:43:35;37.60;61.90
33414;DHT22;60055;41.884;12.534;2022-08-07T09:54:09;38.20;61.50
33414;DHT22;60055;41.884;12.534;2022-08-07T10:07:58;36.00;65.20
33414;DHT22;60055;41.884;12.534;2022-08-07T10:11:01;35.80;66.10
33414;DHT22;60055;41.884;12.534;2022-08-07T10:24:23;36.40;65.10
33414;DHT22;60055;41.884;12.534;2022-08-07T10:37:42;36.10;64.30
33414;DHT22;60055;41.884;12.534;2022-08-07T10:40:16;36.10;64.70
33414;DHT22;60055;41.884;12.534;2022-08-07T10:45:38;36.40;64.80
33414;DHT22;60055;41.884;12.534;2022-08-07T10:50:54;36.30;64.40
33414;DHT22;60055;41.884;12.534;2022-08-07T10:56:10;36.30;67.40
33414;DHT22;60055;41.884;12.534;2022-08-07T10:59:00;36.30;69.20
33414;DHT22;60055;41.884;12.534;2022-08-07T11:04:22;36.40;71.40
33414;DHT22;60055;41.884;12.534;2022-08-07T11:09:57;36.10;72.60
33414;DHT22;60055;41.884;12.534;2022-08-07T11:12:31;36.00;72.90
33414;DHT22;60055;41.884;12.534;2022-08-07T11:15:09;35.90;73.20
33414;DHT22;60055;41.884;12.534;2022-08-07T11:17:45;35.90;73.30
33414;DHT22;60055;41.884;12.534;2022-08-07T11:20:20;36.20;72.70
33414;DHT22;60055;41.884;12.534;2022-08-07T11:25:47;36.50;71.70
33414;DHT22;60055;41.884;12.534;2022-08-07T11:28:28;36.40;71.90
33414;DHT22;60055;41.884;12.534;2022-08-07T11:31:15;36.10;72.20
33414;DHT22;60055;41.884;12.534;2022-08-07T11:36:39;36.30;70.10
33414;DHT22;60055;41.884;12.534;2022-08-07T11:39:30;36.20;70.20
33414;DHT22;60055;41.884;12.534;2022-08-07T11:42:24;36.30;70.00
33414;DHT22;60055;41.884;12.534;2022-08-07T11:48:29;35.90;69.80
33414;DHT22;60055;41.884;12.534;2022-08-07T11:53:52;36.50;69.90
33414;DHT22;60055;41.884;12.534;2022-08-07T12:02:11;36.40;69.80
33414;DHT22;60055;41.884;12.534;2022-08-07T12:07:26;36.60;68.00
33414;DHT22;60055;41.884;12.534;2022-08-07T12:13:27;36.60;66.90
33414;DHT22;60055;41.884;12.534;2022-08-07T12:16:00;36.40;66.10
33414;DHT22;60055;41.884;12.534;2022-08-07T12:21:36;36.40;64.90
33414;DHT22;60055;41.884;12.534;2022-08-07T12:24:33;36.30;64.80
33414;DHT22;60055;41.884;12.534;2022-08-07T12:27:15;36.40;64.50
33414;DHT22;60055;41.884;12.534;2022-08-07T12:29:50;36.40;64.60
33414;DHT22;60055;41.884;12.534;2022-08-07T12:35:02;36.30;63.90
33414;DHT22;60055;41.884;12.534;2022-08-07T12:37:29;36.20;63.30
33414;DHT22;60055;41.884;12.534;2022-08-07T12:39:57;36.50;63.10
33414;DHT22;60055;41.884;12.534;2022-08-07T12:42:26;36.60;62.80
33414;DHT22;60055;41.884;12.534;2022-08-07T12:44:55;36.60;62.50
33414;DHT22;60055;41.884;12.534;2022-08-07T12:50:27;36.80;61.70
33414;DHT22;60055;41.884;12.534;2022-08-07T12:53:06;36.80;61.10
33414;DHT22;60055;41.884;12.534;2022-08-07T12:55:39;36.90;61.00
33414;DHT22;60055;41.884;12.534;2022-08-07T12:58:09;37.00;60.10
33414;DHT22;60055;41.884;12.534;2022-08-07T13:00:46;36.90;59.90
33414;DHT22;60055;41.884;12.534;2022-08-07T13:03:34;36.70;59.70
33414;DHT22;60055;41.884;12.534;2022-08-07T13:06:20;36.50;59.90
33414;DHT22;60055;41.884;12.534;2022-08-07T13:09:39;36.70;59.90
33414;DHT22;60055;41.884;12.534;2022-08-07T13:12:10;36.40;60.20
33414;DHT22;60055;41.884;12.534;2022-08-07T13:14:50;36.30;60.60
33414;DHT22;60055;41.884;12.534;2022-08-07T13:17:43;36.70;60.20
33414;DHT22;60055;41.884;12.534;2022-08-07T13:20:18;37.00;60.00
33414;DHT22;60055;41.884;12.534;2022-08-07T13:22:49;36.60;60.70
33414;DHT22;60055;41.884;12.534;2022-08-07T13:25:28;36.60;60.20
33414;DHT22;60055;41.884;12.534;2022-08-07T13:28:26;36.50;60.40
33414;DHT22;60055;41.884;12.534;2022-08-07T13:30:57;36.70;60.50
33414;DHT22;60055;41.884;12.534;2022-08-07T13:33:53;36.60;60.80
33414;DHT22;60055;41.884;12.534;2022-08-07T13:36:27;37.00;60.30
33414;DHT22;60055;41.884;12.534;2022-08-07T13:41:50;37.10;60.10
33414;DHT22;60055;41.884;12.534;2022-08-07T13:44:22;37.40;59.80
33414;DHT22;60055;41.884;12.534;2022-08-07T13:46:51;37.00;60.20
33414;DHT22;60055;41.884;12.534;2022-08-07T13:49:21;37.00;60.70
33414;DHT22;60055;41.884;12.534;2022-08-07T13:51:49;36.70;61.60
33414;DHT22;60055;41.884;12.534;2022-08-07T13:54:17;36.70;61.00
33414;DHT22;60055;41.884;12.534;2022-08-07T13:56:44;36.90;61.00
33414;DHT22;60055;41.884;12.534;2022-08-07T13:59:19;37.00;59.90
33414;DHT22;60055;41.884;12.534;2022-08-07T14:04:47;36.80;59.20
33414;DHT22;60055;41.884;12.534;2022-08-07T14:07:16;36.80;59.60
33414;DHT22;60055;41.884;12.534;2022-08-07T14:09:42;36.80;59.90
33414;DHT22;60055;41.884;12.534;2022-08-07T14:12:17;37.00;60.20
33414;DHT22;60055;41.884;12.534;2022-08-07T14:14:59;37.00;60.40
33414;DHT22;60055;41.884;12.534;2022-08-07T14:17:26;37.20;60.00
33414;DHT22;60055;41.884;12.534;2022-08-07T14:20:03;36.90;60.70
33414;DHT22;60055;41.884;12.534;2022-08-07T14:22:32;37.30;60.30
33414;DHT22;60055;41.884;12.534;2022-08-07T14:25:02;37.40;60.10
33414;DHT22;60055;41.884;12.534;2022-08-07T14:27:35;37.40;60.00
33414;DHT22;60055;41.884;12.534;2022-08-07T14:30:07;37.50;59.70
33414;DHT22;60055;41.884;12.534;2022-08-07T14:32:57;37.00;60.10
33414;DHT22;60055;41.884;12.534;2022-08-07T14:35:27;36.80;60.40
33414;DHT22;60055;41.884;12.534;2022-08-07T14:37:55;36.50;60.50
33414;DHT22;60055;41.884;12.534;2022-08-07T14:40:25;36.50;60.50
33414;DHT22;60055;41.884;12.534;2022-08-07T14:43:06;36.40;60.80
33414;DHT22;60055;41.884;12.534;2022-08-07T14:45:53;36.10;61.60
33414;DHT22;60055;41.884;12.534;2022-08-07T14:48:22;36.50;61.90
33414;DHT22;60055;41.884;12.534;2022-08-07T14:50:53;35.90;63.90
33414;DHT22;60055;41.884;12.534;2022-08-07T14:53:23;35.90;63.90
33414;DHT22;60055;41.884;12.534;2022-08-07T14:55:51;35.90;63.50
33414;DHT22;60055;41.884;12.534;2022-08-07T14:58:20;35.20;64.10
33414;DHT22;60055;41.884;12.534;2022-08-07T15:00:48;35.30;63.70
33414;DHT22;60055;41.884;12.534;2022-08-07T15:03:25;35.50;63.30
33414;DHT22;60055;41.884;12.534;2022-08-07T15:05:53;35.70;63.80
33414;DHT22;60055;41.884;12.534;2022-08-07T15:08:34;35.70;63.80
33414;DHT22;60055;41.884;12.534;2022-08-07T15:11:12;36.00;63.40
33414;DHT22;60055;41.884;12.534;2022-08-07T15:16:18;35.70;65.70
33414;DHT22;60055;41.884;12.534;2022-08-07T15:18:48;35.70;65.50
33414;DHT22;60055;41.884;12.534;2022-08-07T15:21:18;36.00;65.00
33414;DHT22;60055;41.884;12.534;2022-08-07T15:23:47;35.80;66.40
33414;DHT22;60055;41.884;12.534;2022-08-07T15:26:15;35.70;67.80
33414;DHT22;60055;41.884;12.534;2022-08-07T15:28:44;35.30;67.80
33414;DHT22;60055;41.884;12.534;2022-08-07T15:31:14;35.30;67.60
33414;DHT22;60055;41.884;12.534;2022-08-07T15:33:41;35.40;69.20
33414;DHT22;60055;41.884;12.534;2022-08-07T15:36:07;35.40;68.70
33414;DHT22;60055;41.884;12.534;2022-08-07T15:38:36;35.30;69.50
33414;DHT22;60055;41.884;12.534;2022-08-07T15:41:09;35.30;70.40
33414;DHT22;60055;41.884;12.534;2022-08-07T15:43:36;35.20;71.20
33414;DHT22;60055;41.884;12.534;2022-08-07T15:46:18;34.90;70.20
33414;DHT22;60055;41.884;12.534;2022-08-07T15:48:47;35.00;70.30
33414;DHT22;60055;41.884;12.534;2022-08-07T15:51:15;34.70;70.60
33414;DHT22;60055;41.884;12.534;2022-08-07T15:53:51;34.80;70.30
33414;DHT22;60055;41.884;12.534;2022-08-07T15:56:20;35.20;70.50
33414;DHT22;60055;41.884;12.534;2022-08-07T15:58:48;35.10;71.00
33414;DHT22;60055;41.884;12.534;2022-08-07T16:01:25;35.20;71.10
33414;DHT22;60055;41.884;12.534;2022-08-07T16:03:57;34.80;72.30
33414;DHT22;60055;41.884;12.534;2022-08-07T16:06:32;34.50;74.00
33414;DHT22;60055;41.884;12.534;2022-08-07T16:09:10;34.50;71.90
33414;DHT22;60055;41.884;12.534;2022-08-07T16:14:14;33.60;64.00
33414;DHT22;60055;41.884;12.534;2022-08-07T16:17:12;32.90;62.70
33414;DHT22;60055;41.884;12.534;2022-08-07T16:25:54;32.20;62.90
33414;DHT22;60055;41.884;12.534;2022-08-07T16:28:47;32.40;62.80
33414;DHT22;60055;41.884;12.534;2022-08-07T16:45:58;32.80;60.30
33414;DHT22;60055;41.884;12.534;2022-08-07T16:51:36;33.10;60.10
33414;DHT22;60055;41.884;12.534;2022-08-07T16:59:31;33.20;58.90
33414;DHT22;60055;41.884;12.534;2022-08-07T17:02:35;33.30;58.80
33414;DHT22;60055;41.884;12.534;2022-08-07T17:05:25;33.20;58.60
33414;DHT22;60055;41.884;12.534;2022-08-07T17:07:58;33.10;57.80
33414;DHT22;60055;41.884;12.534;2022-08-07T17:10:47;32.90;58.20
33414;DHT22;60055;41.884;12.534;2022-08-07T17:16:25;32.80;58.70
33414;DHT22;60055;41.884;12.534;2022-08-07T17:19:02;32.60;60.00
33414;DHT22;60055;41.884;12.534;2022-08-07T17:21:32;32.50;60.40
33414;DHT22;60055;41.884;12.534;2022-08-07T17:24:26;32.30;60.70
33414;DHT22;60055;41.884;12.534;2022-08-07T17:27:12;32.50;61.00
33414;DHT22;60055;41.884;12.534;2022-08-07T17:32:40;32.60;60.80
33414;DHT22;60055;41.884;12.534;2022-08-07T17:35:32;32.50;61.10
33414;DHT22;60055;41.884;12.534;2022-08-07T17:38:07;32.50;61.20
33414;DHT22;60055;41.884;12.534;2022-08-07T17:40:55;32.40;61.50
33414;DHT22;60055;41.884;12.534;2022-08-07T17:43:27;32.30;61.60
33414;DHT22;60055;41.884;12.534;2022-08-07T17:46:26;32.40;61.60
33414;DHT22;60055;41.884;12.534;2022-08-07T17:51:36;32.50;61.30
33414;DHT22;60055;41.884;12.534;2022-08-07T17:54:29;32.30;61.20
33414;DHT22;60055;41.884;12.534;2022-08-07T17:57:01;32.20;61.20
33414;DHT22;60055;41.884;12.534;2022-08-07T17:59:46;32.10;61.10
33414;DHT22;60055;41.884;12.534;2022-08-07T18:02:21;32.20;60.70
33414;DHT22;60055;41.884;12.534;2022-08-07T18:08:19;32.00;61.00
33414;DHT22;60055;41.884;12.534;2022-08-07T18:11:20;32.10;60.90
33414;DHT22;60055;41.884;12.534;2022-08-07T18:21:48;32.20;61.00
33414;DHT22;60055;41.884;12.534;2022-08-07T18:24:48;32.20;61.00
33414;DHT22;60055;41.884;12.534;2022-08-07T18:30:30;32.10;60.90
33414;DHT22;60055;41.884;12.534;2022-08-07T18:36:03;31.90;60.90
33414;DHT22;60055;41.884;12.534;2022-08-07T18:41:21;31.90;60.80
33414;DHT22;60055;41.884;12.534;2022-08-07T18:44:21;31.80;61.20
33414;DHT22;60055;41.884;12.534;2022-08-07T18:47:15;31.80;61.30
33414;DHT22;60055;41.884;12.534;2022-08-07T19:03:17;31.60;62.10
33414;DHT22;60055;41.884;12.534;2022-08-07T19:05:56;31.70;62.00
33414;DHT22;60055;41.884;12.534;2022-08-07T19:08:29;31.70;62.10
33414;DHT22;60055;41.884;12.534;2022-08-07T19:11:07;31.60;62.30
33414;DHT22;60055;41.884;12.534;2022-08-07T19:13:54;31.50;62.20
33414;DHT22;60055;41.884;12.534;2022-08-07T19:16:28;31.50;62.20
33414;DHT22;60055;41.884;12.534;2022-08-07T19:19:03;31.50;62.40
33414;DHT22;60055;41.884;12.534;2022-08-07T19:22:01;31.70;62.20